sensor_id;sensor_type;location;lat;lon;timestamp;P1;durP1;ratioP1;P2;durP2;ratioP2
40669;SDS011;26355;45.528;9.234;2023-05-07T00:01:33;34.20;;;26.15;;
40669;SDS011;26355;45.528;9.234;2023-05-07T00:03:58;33.40;;;25.30;;
40669;SDS011;26355;45.528;9.234;2023-05-07T00:06:24;32.85;;;26.02;;
40669;SDS011;26355;45.528;9.234;2023-05-07T00:08:51;32.85;;;25.88;;
40669;SDS011;26355;45.528;9.234;2023-05-07T00:11:16;31.88;;;24.35;;
40669;SDS011;26355;45.528;9.234;2023-05-07T00:13:42;33.55;;;25.60;;
40669;SDS011;26355;45.528;9.234;2023-05-07T00:16:07;34.45;;;25.95;;
40669;SDS011;26355;45.528;9.234;2023-05-07T00:18:33;31.58;;;24.50;;
40669;SDS011;26355;45.528;9.234;2023-05-07T00:20:58;32.30;;;24.85;;
40669;SDS011;26355;45.528;9.234;2023-05-07T00:23:24;33.72;;;24.90;;
40669;SDS011;26355;45.528;9.234;2023-05-07T00:25:49;32.25;;;22.73;;
40669;SDS011;26355;45.528;9.234;2023-05-07T00:28:15;30.85;;;23.73;;
40669;SDS011;26355;45.528;9.234;2023-05-07T00:30:40;30.02;;;24.05;;
40669;SDS011;26355;45.528;9.234;2023-05-07T00:33:06;30.55;;;23.10;;
40669;SDS011;26355;45.528;9.234;2023-05-07T00:35:32;29.00;;;23.08;;
40669;SDS011;26355;45.528;9.234;2023-05-07T00:37:57;31.92;;;23.42;;
40669;SDS011;26355;45.528;9.234;2023-05-07T00:40:23;29.20;;;21.92;;
40669;SDS011;26355;45.528;9.234;2023-05-07T00:42:49;29.67;;;22.25;;
40669;SDS011;26355;45.528;9.234;2023-05-07T00:45:15;28.20;;;22.40;;
40669;SDS011;26355;45.528;9.234;2023-05-07T00:47:42;30.10;;;21.58;;
40669;SDS011;26355;45.528;9.234;2023-05-07T00:50:08;28.60;;;20.70;;
40669;SDS011;26355;45.528;9.234;2023-05-07T00:52:35;29.38;;;21.10;;
40669;SDS011;26355;45.528;9.234;2023-05-07T00:55:04;27.20;;;20.93;;
40669;SDS011;26355;45.528;9.234;2023-05-07T00:57:36;22.33;;;14.57;;
40669;SDS011;26355;45.528;9.234;2023-05-07T01:00:05;20.75;;;11.45;;
40669;SDS011;26355;45.528;9.234;2023-05-07T01:02:33;17.27;;;8.20;;
40669;SDS011;26355;45.528;9.234;2023-05-07T01:05:02;15.98;;;6.05;;
40669;SDS011;26355;45.528;9.234;2023-05-07T01:07:31;14.32;;;5.25;;
40669;SDS011;26355;45.528;9.234;2023-05-07T01:09:58;13.70;;;4.68;;
40669;SDS011;26355;45.528;9.234;2023-05-07T01:12:24;11.68;;;4.82;;
40669;SDS011;26355;45.528;9.234;2023-05-07T01:14:52;11.90;;;4.47;;
40669;SDS011;26355;45.528;9.234;2023-05-07T01:17:18;13.18;;;4.85;;
40669;SDS011;26355;45.528;9.234;2023-05-07T01:19:44;13.55;;;4.38;;
40669;SDS011;26355;45.528;9.234;2023-05-07T01:22:10;9.32;;;3.47;;
40669;SDS011;26355;45.528;9.234;2023-05-07T01:24:36;10.73;;;3.88;;
40669;SDS011;26355;45.528;9.234;2023-05-07T01:27:02;9.55;;;3.60;;
40669;SDS011;26355;45.528;9.234;2023-05-07T01:29:28;10.45;;;3.50;;
40669;SDS011;26355;45.528;9.234;2023-05-07T01:31:54;12.32;;;3.78;;
40669;SDS011;26355;45.528;9.234;2023-05-07T01:34:24;8.23;;;3.28;;
40669;SDS011;26355;45.528;9.234;2023-05-07T01:36:52;8.80;;;3.55;;
40669;SDS011;26355;45.528;9.234;2023-05-07T01:39:24;7.43;;;2.95;;
40669;SDS011;26355;45.528;9.234;2023-05-07T01:41:50;7.25;;;2.70;;
40669;SDS011;26355;45.528;9.234;2023-05-07T01:44:16;6.13;;;2.60;;
40669;SDS011;26355;45.528;9.234;2023-05-07T01:46:43;6.88;;;2.60;;
40669;SDS011;26355;45.528;9.234;2023-05-07T01:49:08;6.32;;;2.60;;
40669;SDS011;26355;45.528;9.234;2023-05-07T01:51:34;7.35;;;2.85;;
40669;SDS011;26355;45.528;9.234;2023-05-07T01:54:01;7.25;;;2.92;;
40669;SDS011;26355;45.528;9.234;2023-05-07T01:56:26;6.20;;;2.60;;
40669;SDS011;26355;45.528;9.234;2023-05-07T01:58:52;6.18;;;2.70;;
40669;SDS011;26355;45.528;9.234;2023-05-07T02:01:17;8.05;;;2.60;;
40669;SDS011;26355;45.528;9.234;2023-05-07T02:03:43;7.57;;;2.50;;
40669;SDS011;26355;45.528;9.234;2023-05-07T02:06:09;6.43;;;2.50;;
40669;SDS011;26355;45.528;9.234;2023-05-07T02:08:35;7.63;;;2.40;;
40669;SDS011;26355;45.528;9.234;2023-05-07T02:11:00;7.60;;;2.40;;
40669;SDS011;26355;45.528;9.234;2023-05-07T02:13:28;6.68;;;2.08;;
40669;SDS011;26355;45.528;9.234;2023-05-07T02:15:55;5.72;;;1.83;;
40669;SDS011;26355;45.528;9.234;2023-05-07T02:18:20;3.90;;;1.85;;
40669;SDS011;26355;45.528;9.234;2023-05-07T02:20:46;6.97;;;2.00;;
40669;SDS011;26355;45.528;9.234;2023-05-07T02:23:11;5.88;;;1.83;;
40669;SDS011;26355;45.528;9.234;2023-05-07T02:25:37;7.13;;;2.00;;
40669;SDS011;26355;45.528;9.234;2023-05-07T02:28:03;4.47;;;1.90;;
40669;SDS011;26355;45.528;9.234;2023-05-07T02:30:28;5.07;;;1.58;;
40669;SDS011;26355;45.528;9.234;2023-05-07T02:32:54;8.05;;;2.00;;
40669;SDS011;26355;45.528;9.234;2023-05-07T02:35:20;6.10;;;1.48;;
40669;SDS011;26355;45.528;9.234;2023-05-07T02:37:45;7.90;;;1.88;;
40669;SDS011;26355;45.528;9.234;2023-05-07T02:40:11;7.95;;;2.00;;
40669;SDS011;26355;45.528;9.234;2023-05-07T02:42:37;4.90;;;1.73;;
40669;SDS011;26355;45.528;9.234;2023-05-07T02:45:02;6.72;;;1.70;;
40669;SDS011;26355;45.528;9.234;2023-05-07T02:47:28;5.35;;;1.70;;
40669;SDS011;26355;45.528;9.234;2023-05-07T02:49:54;3.28;;;1.60;;
40669;SDS011;26355;45.528;9.234;2023-05-07T02:52:20;4.25;;;1.65;;
40669;SDS011;26355;45.528;9.234;2023-05-07T02:54:46;4.97;;;1.70;;
40669;SDS011;26355;45.528;9.234;2023-05-07T02:57:11;3.88;;;1.85;;
40669;SDS011;26355;45.528;9.234;2023-05-07T02:59:37;7.18;;;1.67;;
40669;SDS011;26355;45.528;9.234;2023-05-07T03:02:03;10.82;;;2.08;;
40669;SDS011;26355;45.528;9.234;2023-05-07T03:04:28;5.78;;;1.88;;
40669;SDS011;26355;45.528;9.234;2023-05-07T03:06:54;3.15;;;1.60;;
40669;SDS011;26355;45.528;9.234;2023-05-07T03:09:19;5.25;;;1.80;;
40669;SDS011;26355;45.528;9.234;2023-05-07T03:11:45;6.78;;;2.15;;
40669;SDS011;26355;45.528;9.234;2023-05-07T03:14:11;4.75;;;1.80;;
40669;SDS011;26355;45.528;9.234;2023-05-07T03:16:36;6.57;;;2.25;;
40669;SDS011;26355;45.528;9.234;2023-05-07T03:19:02;4.32;;;1.92;;
40669;SDS011;26355;45.528;9.234;2023-05-07T03:21:28;5.93;;;1.90;;
40669;SDS011;26355;45.528;9.234;2023-05-07T03:23:53;5.40;;;1.70;;
40669;SDS011;26355;45.528;9.234;2023-05-07T03:26:19;7.15;;;2.13;;
40669;SDS011;26355;45.528;9.234;2023-05-07T03:28:45;4.88;;;2.00;;
40669;SDS011;26355;45.528;9.234;2023-05-07T03:31:10;4.32;;;1.88;;
40669;SDS011;26355;45.528;9.234;2023-05-07T03:33:38;5.82;;;1.92;;
40669;SDS011;26355;45.528;9.234;2023-05-07T03:36:15;6.07;;;1.88;;
40669;SDS011;26355;45.528;9.234;2023-05-07T03:38:40;3.38;;;1.77;;
40669;SDS011;26355;45.528;9.234;2023-05-07T03:41:06;6.05;;;1.95;;
40669;SDS011;26355;45.528;9.234;2023-05-07T03:43:31;7.35;;;1.90;;
40669;SDS011;26355;45.528;9.234;2023-05-07T03:45:57;5.88;;;1.90;;
40669;SDS011;26355;45.528;9.234;2023-05-07T03:48:22;5.35;;;2.15;;
40669;SDS011;26355;45.528;9.234;2023-05-07T03:50:48;2.90;;;1.58;;
40669;SDS011;26355;45.528;9.234;2023-05-07T03:53:13;6.43;;;1.90;;
40669;SDS011;26355;45.528;9.234;2023-05-07T03:55:39;4.43;;;1.80;;
40669;SDS011;26355;45.528;9.234;2023-05-07T03:58:04;3.70;;;1.60;;
40669;SDS011;26355;45.528;9.234;2023-05-07T04:00:30;7.65;;;2.03;;
40669;SDS011;26355;45.528;9.234;2023-05-07T04:02:58;6.80;;;2.10;;
40669;SDS011;26355;45.528;9.234;2023-05-07T04:05:24;7.25;;;2.05;;
40669;SDS011;26355;45.528;9.234;2023-05-07T04:07:50;5.47;;;1.75;;
40669;SDS011;26355;45.528;9.234;2023-05-07T04:10:15;6.18;;;2.03;;
40669;SDS011;26355;45.528;9.234;2023-05-07T04:12:41;5.05;;;1.90;;
40669;SDS011;26355;45.528;9.234;2023-05-07T04:15:07;7.60;;;2.00;;
40669;SDS011;26355;45.528;9.234;2023-05-07T04:17:33;7.63;;;2.15;;
40669;SDS011;26355;45.528;9.234;2023-05-07T04:19:58;7.75;;;2.20;;
40669;SDS011;26355;45.528;9.234;2023-05-07T04:22:24;7.07;;;1.90;;
40669;SDS011;26355;45.528;9.234;2023-05-07T04:24:49;4.55;;;1.50;;
40669;SDS011;26355;45.528;9.234;2023-05-07T04:27:15;8.38;;;2.08;;
40669;SDS011;26355;45.528;9.234;2023-05-07T04:29:40;4.70;;;1.90;;
40669;SDS011;26355;45.528;9.234;2023-05-07T04:32:07;5.30;;;1.67;;
40669;SDS011;26355;45.528;9.234;2023-05-07T04:34:34;6.55;;;1.98;;
40669;SDS011;26355;45.528;9.234;2023-05-07T04:36:59;7.72;;;2.22;;
40669;SDS011;26355;45.528;9.234;2023-05-07T04:39:25;6.03;;;1.65;;
40669;SDS011;26355;45.528;9.234;2023-05-07T04:41:51;7.25;;;2.05;;
40669;SDS011;26355;45.528;9.234;2023-05-07T04:44:16;5.30;;;1.70;;
40669;SDS011;26355;45.528;9.234;2023-05-07T04:46:42;4.82;;;1.70;;
40669;SDS011;26355;45.528;9.234;2023-05-07T04:49:07;4.05;;;1.75;;
40669;SDS011;26355;45.528;9.234;2023-05-07T04:51:33;5.43;;;1.98;;
40669;SDS011;26355;45.528;9.234;2023-05-07T04:53:59;3.13;;;1.60;;
40669;SDS011;26355;45.528;9.234;2023-05-07T04:56:27;4.20;;;1.70;;
40669;SDS011;26355;45.528;9.234;2023-05-07T04:58:53;5.50;;;1.73;;
40669;SDS011;26355;45.528;9.234;2023-05-07T05:01:19;4.32;;;1.80;;
40669;SDS011;26355;45.528;9.234;2023-05-07T05:03:44;4.90;;;1.98;;
40669;SDS011;26355;45.528;9.234;2023-05-07T05:06:10;4.00;;;1.60;;
40669;SDS011;26355;45.528;9.234;2023-05-07T05:08:36;4.95;;;1.95;;
40669;SDS011;26355;45.528;9.234;2023-05-07T05:11:01;4.63;;;1.75;;
40669;SDS011;26355;45.528;9.234;2023-05-07T05:13:27;6.03;;;1.90;;
40669;SDS011;26355;45.528;9.234;2023-05-07T05:15:53;6.15;;;1.98;;
40669;SDS011;26355;45.528;9.234;2023-05-07T05:18:18;6.82;;;1.90;;
40669;SDS011;26355;45.528;9.234;2023-05-07T05:20:44;4.63;;;2.25;;
40669;SDS011;26355;45.528;9.234;2023-05-07T05:23:09;6.20;;;2.00;;
40669;SDS011;26355;45.528;9.234;2023-05-07T05:25:35;7.35;;;1.75;;
40669;SDS011;26355;45.528;9.234;2023-05-07T05:28:02;7.88;;;2.10;;
40669;SDS011;26355;45.528;9.234;2023-05-07T05:30:28;4.55;;;1.90;;
40669;SDS011;26355;45.528;9.234;2023-05-07T05:32:53;6.63;;;1.90;;
40669;SDS011;26355;45.528;9.234;2023-05-07T05:35:19;3.90;;;1.80;;
40669;SDS011;26355;45.528;9.234;2023-05-07T05:37:44;6.68;;;1.80;;
40669;SDS011;26355;45.528;9.234;2023-05-07T05:40:10;7.28;;;1.90;;
40669;SDS011;26355;45.528;9.234;2023-05-07T05:42:36;5.95;;;2.10;;
40669;SDS011;26355;45.528;9.234;2023-05-07T05:45:01;7.40;;;2.10;;
40669;SDS011;26355;45.528;9.234;2023-05-07T05:47:27;5.88;;;1.90;;
40669;SDS011;26355;45.528;9.234;2023-05-07T05:49:52;5.72;;;2.13;;
40669;SDS011;26355;45.528;9.234;2023-05-07T05:52:18;6.35;;;2.28;;
40669;SDS011;26355;45.528;9.234;2023-05-07T05:54:43;6.13;;;2.20;;
40669;SDS011;26355;45.528;9.234;2023-05-07T05:57:09;5.10;;;2.00;;
40669;SDS011;26355;45.528;9.234;2023-05-07T05:59:35;4.88;;;1.90;;
40669;SDS011;26355;45.528;9.234;2023-05-07T06:02:00;4.68;;;2.17;;
40669;SDS011;26355;45.528;9.234;2023-05-07T06:04:26;6.13;;;2.00;;
40669;SDS011;26355;45.528;9.234;2023-05-07T06:06:51;5.90;;;1.90;;
40669;SDS011;26355;45.528;9.234;2023-05-07T06:09:17;6.32;;;2.20;;
40669;SDS011;26355;45.528;9.234;2023-05-07T06:11:43;7.10;;;2.10;;
40669;SDS011;26355;45.528;9.234;2023-05-07T06:14:08;4.80;;;2.25;;
40669;SDS011;26355;45.528;9.234;2023-05-07T06:16:34;5.22;;;2.10;;
40669;SDS011;26355;45.528;9.234;2023-05-07T06:18:59;6.03;;;2.22;;
40669;SDS011;26355;45.528;9.234;2023-05-07T06:21:25;4.38;;;1.83;;
40669;SDS011;26355;45.528;9.234;2023-05-07T06:23:50;6.47;;;2.30;;
40669;SDS011;26355;45.528;9.234;2023-05-07T06:26:17;6.50;;;2.30;;
40669;SDS011;26355;45.528;9.234;2023-05-07T06:28:42;8.23;;;2.28;;
40669;SDS011;26355;45.528;9.234;2023-05-07T06:31:15;8.48;;;3.13;;
40669;SDS011;26355;45.528;9.234;2023-05-07T06:33:44;5.70;;;2.15;;
40669;SDS011;26355;45.528;9.234;2023-05-07T06:36:10;6.88;;;2.28;;
40669;SDS011;26355;45.528;9.234;2023-05-07T06:38:35;5.72;;;2.33;;
40669;SDS011;26355;45.528;9.234;2023-05-07T06:41:01;6.70;;;2.40;;
40669;SDS011;26355;45.528;9.234;2023-05-07T06:43:26;6.53;;;2.15;;
40669;SDS011;26355;45.528;9.234;2023-05-07T06:45:52;7.28;;;2.30;;
40669;SDS011;26355;45.528;9.234;2023-05-07T06:48:18;5.50;;;2.30;;
40669;SDS011;26355;45.528;9.234;2023-05-07T06:50:43;8.82;;;2.75;;
40669;SDS011;26355;45.528;9.234;2023-05-07T06:53:09;7.20;;;2.60;;
40669;SDS011;26355;45.528;9.234;2023-05-07T06:55:35;7.50;;;2.53;;
40669;SDS011;26355;45.528;9.234;2023-05-07T06:58:00;8.80;;;2.80;;
40669;SDS011;26355;45.528;9.234;2023-05-07T07:00:29;7.97;;;2.80;;
40669;SDS011;26355;45.528;9.234;2023-05-07T07:02:56;5.63;;;2.35;;
40669;SDS011;26355;45.528;9.234;2023-05-07T07:05:21;8.32;;;2.60;;
40669;SDS011;26355;45.528;9.234;2023-05-07T07:07:47;8.40;;;2.85;;
40669;SDS011;26355;45.528;9.234;2023-05-07T07:10:17;7.35;;;2.53;;
40669;SDS011;26355;45.528;9.234;2023-05-07T07:12:44;9.95;;;2.85;;
40669;SDS011;26355;45.528;9.234;2023-05-07T07:15:10;8.63;;;3.00;;
40669;SDS011;26355;45.528;9.234;2023-05-07T07:17:36;9.90;;;3.42;;
40669;SDS011;26355;45.528;9.234;2023-05-07T07:20:02;8.85;;;2.92;;
40669;SDS011;26355;45.528;9.234;2023-05-07T07:22:28;6.05;;;2.53;;
40669;SDS011;26355;45.528;9.234;2023-05-07T07:24:53;9.80;;;3.08;;
40669;SDS011;26355;45.528;9.234;2023-05-07T07:27:19;11.93;;;3.83;;
40669;SDS011;26355;45.528;9.234;2023-05-07T07:29:45;10.07;;;3.20;;
40669;SDS011;26355;45.528;9.234;2023-05-07T07:32:11;9.20;;;3.00;;
40669;SDS011;26355;45.528;9.234;2023-05-07T07:34:36;11.68;;;3.40;;
40669;SDS011;26355;45.528;9.234;2023-05-07T07:37:02;8.85;;;3.08;;
40669;SDS011;26355;45.528;9.234;2023-05-07T07:39:31;9.95;;;3.13;;
40669;SDS011;26355;45.528;9.234;2023-05-07T07:41:57;8.47;;;3.03;;
40669;SDS011;26355;45.528;9.234;2023-05-07T07:44:22;8.95;;;3.17;;
40669;SDS011;26355;45.528;9.234;2023-05-07T07:46:48;8.73;;;3.17;;
40669;SDS011;26355;45.528;9.234;2023-05-07T07:49:14;8.18;;;2.72;;
40669;SDS011;26355;45.528;9.234;2023-05-07T07:51:40;8.10;;;3.05;;
40669;SDS011;26355;45.528;9.234;2023-05-07T07:54:05;8.43;;;2.58;;
40669;SDS011;26355;45.528;9.234;2023-05-07T07:56:32;9.18;;;3.15;;
40669;SDS011;26355;45.528;9.234;2023-05-07T08:01:24;9.35;;;2.78;;
40669;SDS011;26355;45.528;9.234;2023-05-07T08:03:49;11.52;;;3.20;;
40669;SDS011;26355;45.528;9.234;2023-05-07T08:06:15;8.65;;;2.95;;
40669;SDS011;26355;45.528;9.234;2023-05-07T08:08:40;6.47;;;2.70;;
40669;SDS011;26355;45.528;9.234;2023-05-07T08:11:06;8.50;;;2.72;;
40669;SDS011;26355;45.528;9.234;2023-05-07T08:13:32;6.68;;;2.60;;
40669;SDS011;26355;45.528;9.234;2023-05-07T08:15:57;8.05;;;2.80;;
40669;SDS011;26355;45.528;9.234;2023-05-07T08:18:23;10.32;;;2.90;;
40669;SDS011;26355;45.528;9.234;2023-05-07T08:20:50;7.65;;;2.55;;
40669;SDS011;26355;45.528;9.234;2023-05-07T08:23:16;8.90;;;2.60;;
40669;SDS011;26355;45.528;9.234;2023-05-07T08:25:41;6.40;;;2.83;;
40669;SDS011;26355;45.528;9.234;2023-05-07T08:28:07;7.10;;;2.40;;
40669;SDS011;26355;45.528;9.234;2023-05-07T08:30:33;7.70;;;2.47;;
40669;SDS011;26355;45.528;9.234;2023-05-07T08:32:59;6.40;;;2.15;;
40669;SDS011;26355;45.528;9.234;2023-05-07T08:35:25;5.37;;;2.10;;
40669;SDS011;26355;45.528;9.234;2023-05-07T08:37:52;6.68;;;2.42;;
40669;SDS011;26355;45.528;9.234;2023-05-07T08:40:17;7.90;;;2.75;;
40669;SDS011;26355;45.528;9.234;2023-05-07T08:42:43;8.25;;;2.67;;
40669;SDS011;26355;45.528;9.234;2023-05-07T08:45:10;9.05;;;2.80;;
40669;SDS011;26355;45.528;9.234;2023-05-07T08:47:40;8.57;;;2.85;;
40669;SDS011;26355;45.528;9.234;2023-05-07T08:50:11;10.05;;;3.33;;
40669;SDS011;26355;45.528;9.234;2023-05-07T08:52:37;10.35;;;3.30;;
40669;SDS011;26355;45.528;9.234;2023-05-07T08:57:31;7.88;;;2.92;;
40669;SDS011;26355;45.528;9.234;2023-05-07T08:59:57;9.00;;;2.90;;
40669;SDS011;26355;45.528;9.234;2023-05-07T09:02:22;7.80;;;2.90;;
40669;SDS011;26355;45.528;9.234;2023-05-07T09:04:48;8.45;;;2.75;;
40669;SDS011;26355;45.528;9.234;2023-05-07T09:07:14;9.65;;;3.00;;
40669;SDS011;26355;45.528;9.234;2023-05-07T09:09:39;7.93;;;2.80;;
40669;SDS011;26355;45.528;9.234;2023-05-07T09:12:05;8.35;;;2.90;;
40669;SDS011;26355;45.528;9.234;2023-05-07T09:14:31;9.30;;;3.00;;
40669;SDS011;26355;45.528;9.234;2023-05-07T09:16:56;10.68;;;3.53;;
40669;SDS011;26355;45.528;9.234;2023-05-07T09:19:25;8.70;;;3.22;;
40669;SDS011;26355;45.528;9.234;2023-05-07T09:21:58;8.93;;;3.38;;
40669;SDS011;26355;45.528;9.234;2023-05-07T09:24:28;10.48;;;3.47;;
40669;SDS011;26355;45.528;9.234;2023-05-07T09:26:58;9.98;;;3.45;;
40669;SDS011;26355;45.528;9.234;2023-05-07T09:29:26;8.50;;;3.65;;
40669;SDS011;26355;45.528;9.234;2023-05-07T09:31:54;10.20;;;3.78;;
40669;SDS011;26355;45.528;9.234;2023-05-07T09:34:20;8.05;;;3.03;;
40669;SDS011;26355;45.528;9.234;2023-05-07T09:36:45;10.05;;;3.35;;
40669;SDS011;26355;45.528;9.234;2023-05-07T09:39:11;10.27;;;3.53;;
40669;SDS011;26355;45.528;9.234;2023-05-07T09:41:44;9.90;;;3.13;;
40669;SDS011;26355;45.528;9.234;2023-05-07T09:44:14;5.33;;;2.37;;
40669;SDS011;26355;45.528;9.234;2023-05-07T09:46:42;10.73;;;3.08;;
40669;SDS011;26355;45.528;9.234;2023-05-07T09:49:10;8.32;;;2.53;;
40669;SDS011;26355;45.528;9.234;2023-05-07T09:51:45;7.78;;;2.35;;
40669;SDS011;26355;45.528;9.234;2023-05-07T09:54:14;7.03;;;2.63;;
40669;SDS011;26355;45.528;9.234;2023-05-07T09:56:40;5.03;;;2.30;;
40669;SDS011;26355;45.528;9.234;2023-05-07T09:59:07;8.13;;;2.80;;
40669;SDS011;26355;45.528;9.234;2023-05-07T10:01:35;7.95;;;2.90;;
40669;SDS011;26355;45.528;9.234;2023-05-07T10:04:02;9.83;;;2.77;;
40669;SDS011;26355;45.528;9.234;2023-05-07T10:06:30;9.98;;;3.20;;
40669;SDS011;26355;45.528;9.234;2023-05-07T10:08:56;7.80;;;3.15;;
40669;SDS011;26355;45.528;9.234;2023-05-07T10:11:22;12.02;;;3.85;;
40669;SDS011;26355;45.528;9.234;2023-05-07T10:13:48;11.98;;;4.30;;
40669;SDS011;26355;45.528;9.234;2023-05-07T10:16:14;9.32;;;3.20;;
40669;SDS011;26355;45.528;9.234;2023-05-07T10:18:42;10.65;;;3.25;;
40669;SDS011;26355;45.528;9.234;2023-05-07T10:21:11;7.82;;;2.72;;
40669;SDS011;26355;45.528;9.234;2023-05-07T10:23:42;8.27;;;3.30;;
40669;SDS011;26355;45.528;9.234;2023-05-07T10:26:11;8.35;;;3.50;;
40669;SDS011;26355;45.528;9.234;2023-05-07T10:28:40;9.25;;;3.22;;
40669;SDS011;26355;45.528;9.234;2023-05-07T10:34:00;9.05;;;3.25;;
40669;SDS011;26355;45.528;9.234;2023-05-07T10:36:27;9.25;;;3.50;;
40669;SDS011;26355;45.528;9.234;2023-05-07T10:38:53;11.27;;;4.10;;
40669;SDS011;26355;45.528;9.234;2023-05-07T10:41:20;10.93;;;3.60;;
40669;SDS011;26355;45.528;9.234;2023-05-07T10:43:46;11.30;;;3.70;;
40669;SDS011;26355;45.528;9.234;2023-05-07T10:46:18;10.82;;;3.90;;
40669;SDS011;26355;45.528;9.234;2023-05-07T10:49:06;9.68;;;3.55;;
40669;SDS011;26355;45.528;9.234;2023-05-07T10:51:31;10.30;;;3.90;;
40669;SDS011;26355;45.528;9.234;2023-05-07T10:56:42;9.35;;;3.45;;
40669;SDS011;26355;45.528;9.234;2023-05-07T11:04:22;12.02;;;3.90;;
40669;SDS011;26355;45.528;9.234;2023-05-07T11:15:07;10.25;;;3.72;;
40669;SDS011;26355;45.528;9.234;2023-05-07T11:17:52;9.88;;;3.88;;
40669;SDS011;26355;45.528;9.234;2023-05-07T11:25:58;10.23;;;4.20;;
40669;SDS011;26355;45.528;9.234;2023-05-07T11:28:25;9.30;;;3.50;;
40669;SDS011;26355;45.528;9.234;2023-05-07T11:30:55;10.95;;;4.43;;
40669;SDS011;26355;45.528;9.234;2023-05-07T11:33:22;10.35;;;4.05;;
40669;SDS011;26355;45.528;9.234;2023-05-07T11:35:50;11.05;;;4.30;;
40669;SDS011;26355;45.528;9.234;2023-05-07T11:38:17;9.68;;;3.97;;
40669;SDS011;26355;45.528;9.234;2023-05-07T11:40:50;11.27;;;4.22;;
40669;SDS011;26355;45.528;9.234;2023-05-07T11:43:29;12.02;;;4.22;;
40669;SDS011;26355;45.528;9.234;2023-05-07T11:46:04;10.07;;;4.25;;
40669;SDS011;26355;45.528;9.234;2023-05-07T11:48:34;11.52;;;4.07;;
40669;SDS011;26355;45.528;9.234;2023-05-07T11:51:02;11.48;;;4.07;;
40669;SDS011;26355;45.528;9.234;2023-05-07T11:53:39;10.88;;;3.92;;
40669;SDS011;26355;45.528;9.234;2023-05-07T11:56:09;10.75;;;4.20;;
40669;SDS011;26355;45.528;9.234;2023-05-07T11:58:36;11.30;;;4.53;;
40669;SDS011;26355;45.528;9.234;2023-05-07T12:01:02;23.33;;;9.73;;
40669;SDS011;26355;45.528;9.234;2023-05-07T12:03:28;19.83;;;9.05;;
40669;SDS011;26355;45.528;9.234;2023-05-07T12:05:53;19.58;;;8.77;;
40669;SDS011;26355;45.528;9.234;2023-05-07T12:08:20;16.27;;;4.90;;
40669;SDS011;26355;45.528;9.234;2023-05-07T12:10:47;22.98;;;12.73;;
40669;SDS011;26355;45.528;9.234;2023-05-07T12:13:15;30.00;;;18.95;;
40669;SDS011;26355;45.528;9.234;2023-05-07T12:15:40;14.27;;;4.47;;
40669;SDS011;26355;45.528;9.234;2023-05-07T12:18:07;27.10;;;14.90;;
40669;SDS011;26355;45.528;9.234;2023-05-07T12:20:33;22.70;;;12.63;;
40669;SDS011;26355;45.528;9.234;2023-05-07T12:23:03;7.80;;;3.47;;
40669;SDS011;26355;45.528;9.234;2023-05-07T12:25:32;14.20;;;5.07;;
40669;SDS011;26355;45.528;9.234;2023-05-07T12:28:04;15.85;;;6.93;;
40669;SDS011;26355;45.528;9.234;2023-05-07T12:30:31;13.60;;;4.78;;
40669;SDS011;26355;45.528;9.234;2023-05-07T12:33:01;12.50;;;4.95;;
40669;SDS011;26355;45.528;9.234;2023-05-07T12:35:27;15.07;;;6.68;;
40669;SDS011;26355;45.528;9.234;2023-05-07T12:37:57;9.45;;;3.50;;
40669;SDS011;26355;45.528;9.234;2023-05-07T12:40:29;8.95;;;3.30;;
40669;SDS011;26355;45.528;9.234;2023-05-07T12:43:01;9.85;;;3.45;;
40669;SDS011;26355;45.528;9.234;2023-05-07T12:45:26;9.93;;;3.20;;
40669;SDS011;26355;45.528;9.234;2023-05-07T12:47:52;8.35;;;3.10;;
40669;SDS011;26355;45.528;9.234;2023-05-07T12:50:18;7.85;;;2.83;;
40669;SDS011;26355;45.528;9.234;2023-05-07T12:52:45;8.40;;;3.10;;
40669;SDS011;26355;45.528;9.234;2023-05-07T12:55:12;7.07;;;3.15;;
40669;SDS011;26355;45.528;9.234;2023-05-07T12:57:45;8.35;;;3.15;;
40669;SDS011;26355;45.528;9.234;2023-05-07T13:00:13;5.35;;;2.60;;
40669;SDS011;26355;45.528;9.234;2023-05-07T13:02:40;7.05;;;2.92;;
40669;SDS011;26355;45.528;9.234;2023-05-07T13:05:07;6.43;;;2.70;;
40669;SDS011;26355;45.528;9.234;2023-05-07T13:07:33;5.77;;;2.30;;
40669;SDS011;26355;45.528;9.234;2023-05-07T13:09:59;7.50;;;3.30;;
40669;SDS011;26355;45.528;9.234;2023-05-07T13:12:26;7.65;;;2.90;;
40669;SDS011;26355;45.528;9.234;2023-05-07T13:14:51;7.13;;;2.65;;
40669;SDS011;26355;45.528;9.234;2023-05-07T13:17:17;6.25;;;2.75;;
40669;SDS011;26355;45.528;9.234;2023-05-07T13:19:43;5.90;;;2.40;;
40669;SDS011;26355;45.528;9.234;2023-05-07T13:22:09;5.82;;;2.70;;
40669;SDS011;26355;45.528;9.234;2023-05-07T13:24:35;7.72;;;3.13;;
40669;SDS011;26355;45.528;9.234;2023-05-07T13:27:01;6.40;;;2.83;;
40669;SDS011;26355;45.528;9.234;2023-05-07T13:29:27;7.35;;;2.80;;
40669;SDS011;26355;45.528;9.234;2023-05-07T13:34:23;9.70;;;3.28;;
40669;SDS011;26355;45.528;9.234;2023-05-07T13:36:49;7.50;;;2.90;;
40669;SDS011;26355;45.528;9.234;2023-05-07T13:39:15;8.73;;;2.88;;
40669;SDS011;26355;45.528;9.234;2023-05-07T13:41:40;7.20;;;2.78;;
40669;SDS011;26355;45.528;9.234;2023-05-07T13:44:06;6.78;;;2.50;;
40669;SDS011;26355;45.528;9.234;2023-05-07T13:46:32;6.30;;;2.60;;
40669;SDS011;26355;45.528;9.234;2023-05-07T13:48:57;8.88;;;2.70;;
40669;SDS011;26355;45.528;9.234;2023-05-07T13:51:23;7.90;;;2.85;;
40669;SDS011;26355;45.528;9.234;2023-05-07T13:53:49;7.28;;;2.70;;
40669;SDS011;26355;45.528;9.234;2023-05-07T13:56:14;6.50;;;2.50;;
40669;SDS011;26355;45.528;9.234;2023-05-07T13:58:40;6.03;;;2.42;;
40669;SDS011;26355;45.528;9.234;2023-05-07T14:01:06;7.00;;;2.53;;
40669;SDS011;26355;45.528;9.234;2023-05-07T14:03:31;7.95;;;2.80;;
40669;SDS011;26355;45.528;9.234;2023-05-07T14:05:58;6.13;;;2.58;;
40669;SDS011;26355;45.528;9.234;2023-05-07T14:08:26;5.95;;;2.63;;
40669;SDS011;26355;45.528;9.234;2023-05-07T14:10:52;5.95;;;2.65;;
40669;SDS011;26355;45.528;9.234;2023-05-07T14:13:17;5.32;;;2.40;;
40669;SDS011;26355;45.528;9.234;2023-05-07T14:15:43;7.20;;;2.70;;
40669;SDS011;26355;45.528;9.234;2023-05-07T14:18:11;10.05;;;2.65;;
40669;SDS011;26355;45.528;9.234;2023-05-07T14:20:37;6.72;;;2.63;;
40669;SDS011;26355;45.528;9.234;2023-05-07T14:23:03;9.07;;;2.95;;
40669;SDS011;26355;45.528;9.234;2023-05-07T14:25:29;11.65;;;3.88;;
40669;SDS011;26355;45.528;9.234;2023-05-07T14:27:54;6.55;;;2.28;;
40669;SDS011;26355;45.528;9.234;2023-05-07T14:30:20;10.90;;;2.67;;
40669;SDS011;26355;45.528;9.234;2023-05-07T14:32:49;5.22;;;2.50;;
40669;SDS011;26355;45.528;9.234;2023-05-07T14:35:15;5.72;;;2.40;;
40669;SDS011;26355;45.528;9.234;2023-05-07T14:37:40;7.82;;;2.45;;
40669;SDS011;26355;45.528;9.234;2023-05-07T14:40:06;7.50;;;2.65;;
40669;SDS011;26355;45.528;9.234;2023-05-07T14:42:32;2.97;;;1.88;;
40669;SDS011;26355;45.528;9.234;2023-05-07T14:44:57;5.78;;;2.53;;
40669;SDS011;26355;45.528;9.234;2023-05-07T14:47:23;8.10;;;2.88;;
40669;SDS011;26355;45.528;9.234;2023-05-07T14:49:48;5.50;;;2.53;;
40669;SDS011;26355;45.528;9.234;2023-05-07T14:52:14;6.57;;;2.40;;
40669;SDS011;26355;45.528;9.234;2023-05-07T14:54:40;7.00;;;2.42;;
40669;SDS011;26355;45.528;9.234;2023-05-07T14:57:06;8.30;;;2.40;;
40669;SDS011;26355;45.528;9.234;2023-05-07T14:59:34;7.28;;;2.45;;
40669;SDS011;26355;45.528;9.234;2023-05-07T15:02:00;8.48;;;2.85;;
40669;SDS011;26355;45.528;9.234;2023-05-07T15:04:26;7.68;;;2.78;;
40669;SDS011;26355;45.528;9.234;2023-05-07T15:06:51;9.25;;;3.10;;
40669;SDS011;26355;45.528;9.234;2023-05-07T15:09:18;9.13;;;3.08;;
40669;SDS011;26355;45.528;9.234;2023-05-07T15:11:44;7.22;;;2.90;;